• Join FlightAware (Why Join?)
  • Login
  • US Flag 
01:14PM EDT


 

Airport Tracker/Info


-or-


 

Live Flight TrackerFlight Track Log ✈ KAL1917 ✈ 24-Sep-2013 ✈ RKJK / KUV - RKPC / CJU

Flight Track Log - Related Links

Times and Time Zones

All times are in EDT time to prevent confusion due to time zone crossing. See the KAL1917 flight status page for this flight to view local times or setup timezone preferences in your user account.

Time Position Orientation Groundspeed Altitude Reporting Facility
EDT Latitude Longitude Course Direction KTS MPH feet Rate Location/Type
01:38AM 35.7140 126.6750 165° South 283 326 9,600  Level FlightAware
01:38AM 35.6770 126.6860 166° South 285 328 9,900 1,680 Climbing FlightAware
01:39AM 35.6770 126.6870 90° East 293 337 11,600 1,380 Climbing FlightAware
01:39AM 35.6360 126.6990 167° South 293 337 11,600  Level FlightAware
01:40AM 35.5960 126.7110 166° South 293 337 11,600  Level FlightAware
01:43AM 35.3820 126.6881 185° South  Level Estimated
01:44AM 35.2934 126.6787 185° South  Level Estimated
01:45AM 35.2210 126.6710 185° South  Level Estimated
01:46AM 35.1485 126.6633 185° South  Level Estimated
01:47AM 35.0761 126.6556 185° South  Level Estimated
01:48AM 35.0036 126.6479 185° South  Level Estimated
01:49AM 34.9312 126.6403 185° South  Level Estimated
01:50AM 34.8587 126.6327 185° South  Level Estimated
01:51AM 34.7863 126.6250 185° South  Level Estimated
01:52AM 34.7138 126.6174 185° South  Level Estimated
01:53AM 34.6413 126.6098 185° South  Level Estimated
01:54AM 34.5689 126.6022 185° South  Level Estimated
01:55AM 34.4964 126.5947 185° South  Level Estimated
01:56AM 34.4240 126.5871 185° South  Level Estimated
01:57AM 34.3515 126.5796 185° South  Level Estimated
01:58AM 34.2790 126.5720 185° South  Level Estimated
01:59AM 34.2066 126.5645 185° South  Level Estimated
02:00AM 34.1341 126.5570 185° South  Level Estimated
02:01AM 34.0617 126.5495 185° South  Level Estimated
02:02AM 33.9892 126.5420 185° South  Level Estimated
02:03AM 33.9167 126.5346 185° South  Level Estimated
02:04AM 33.8443 126.5271 185° South  Level Estimated
02:05AM 33.7718 126.5197 185° South  Level Estimated
02:06AM 33.6994 126.5123 185° South  Level Estimated
02:07AM 33.6269 126.5048 185° South  Level Estimated
02:08AM 33.5544 126.4974 185° South  Level Estimated
02:09AM 33.5113 126.4930 185° South  Level Estimated
02:10AM 33.5113 126.4930 203° Southwest  Level Estimated
02:11AM 33.5113 126.4930 203° Southwest  Level Estimated